Columbia, Missouri
Current Conditions -  °F | °C
As of 5:54 AM on Thursday 29 Jan 2015 (Local Time) from KCOU Reporting Station
Overcast Overcast  
Wind Chill: 32°   Ceiling: 1800
Heat Index: 41°   Visibility: 10mi
Dew Point: 34°   Wind: 21mph
Humidity: 76%   Direction: 310°NW
Pressure: 30.02"   Gusts: 29mph
Location:  38.95°N, 92.33°W
Report Text: KCOU 291154Z AUTO 31018G25KT 10SM OVC018 05/01 A3002 RMK AO2 PK WND 32033/1059 SLP166 T00500011 10128 20050 52059
Loading
Personal Weather Stations






























Interactive Weather Map New forecast layout! Learn more

10-Day Weather Forecast

Advertisements
Track Severe Weather on mobile